sensor_id;sensor_type;location;lat;lon;timestamp;pressure;altitude;pressure_sealevel;temperature;humidity
74613;BME280;63119;51.788;8.824;2023-04-20T00:01:22;100449.25;;;8.57;58.23
74613;BME280;63119;51.788;8.824;2023-04-20T00:03:47;100445.78;;;8.57;57.82
74613;BME280;63119;51.788;8.824;2023-04-20T00:06:13;100448.25;;;8.60;57.67
74613;BME280;63119;51.788;8.824;2023-04-20T00:08:39;100454.13;;;8.65;57.97
74613;BME280;63119;51.788;8.824;2023-04-20T00:11:05;100441.66;;;8.68;58.00
74613;BME280;63119;51.788;8.824;2023-04-20T00:13:30;100439.69;;;8.72;57.98
74613;BME280;63119;51.788;8.824;2023-04-20T00:15:55;100431.69;;;8.73;57.53
74613;BME280;63119;51.788;8.824;2023-04-20T00:18:20;100425.81;;;8.68;58.25
74613;BME280;63119;51.788;8.824;2023-04-20T00:20:45;100419.84;;;8.65;56.58
74613;BME280;63119;51.788;8.824;2023-04-20T00:23:11;100422.91;;;8.73;55.86
74613;BME280;63119;51.788;8.824;2023-04-20T00:25:36;100413.06;;;8.76;55.76
74613;BME280;63119;51.788;8.824;2023-04-20T00:28:02;100411.19;;;8.78;56.36
74613;BME280;63119;51.788;8.824;2023-04-20T00:30:27;100403.00;;;8.67;55.12
74613;BME280;63119;51.788;8.824;2023-04-20T00:32:52;100404.88;;;8.65;54.75
74613;BME280;63119;51.788;8.824;2023-04-20T00:35:17;100404.81;;;8.83;55.01
74613;BME280;63119;51.788;8.824;2023-04-20T00:37:43;100396.47;;;8.74;55.26
74613;BME280;63119;51.788;8.824;2023-04-20T00:40:08;100394.25;;;8.83;55.43
74613;BME280;63119;51.788;8.824;2023-04-20T00:42:34;100392.22;;;8.72;56.76
74613;BME280;63119;51.788;8.824;2023-04-20T00:44:59;100392.50;;;8.33;57.67
74613;BME280;63119;51.788;8.824;2023-04-20T00:47:24;100400.88;;;8.24;58.82
74613;BME280;63119;51.788;8.824;2023-04-20T00:49:51;100394.81;;;8.39;59.55
74613;BME280;63119;51.788;8.824;2023-04-20T00:52:16;100402.19;;;8.50;59.69
74613;BME280;63119;51.788;8.824;2023-04-20T00:54:42;100390.72;;;8.51;59.96
74613;BME280;63119;51.788;8.824;2023-04-20T00:57:07;100391.00;;;8.29;61.16
74613;BME280;63119;51.788;8.824;2023-04-20T00:59:35;100383.22;;;8.26;61.68
74613;BME280;63119;51.788;8.824;2023-04-20T01:02:00;100382.41;;;8.24;61.48
74613;BME280;63119;51.788;8.824;2023-04-20T01:04:25;100381.44;;;8.09;62.77
74613;BME280;63119;51.788;8.824;2023-04-20T01:06:51;100384.13;;;7.91;63.52
74613;BME280;63119;51.788;8.824;2023-04-20T01:09:16;100386.56;;;7.78;64.50
74613;BME280;63119;51.788;8.824;2023-04-20T01:11:41;100383.31;;;7.90;64.25
74613;BME280;63119;51.788;8.824;2023-04-20T01:14:06;100387.25;;;7.99;64.53
74613;BME280;63119;51.788;8.824;2023-04-20T01:16:32;100382.28;;;7.58;65.70
74613;BME280;63119;51.788;8.824;2023-04-20T01:18:59;100372.09;;;7.51;66.91
74613;BME280;63119;51.788;8.824;2023-04-20T01:21:24;100370.19;;;7.54;66.76
74613;BME280;63119;51.788;8.824;2023-04-20T01:23:49;100370.75;;;7.78;67.16
74613;BME280;63119;51.788;8.824;2023-04-20T01:26:17;100370.53;;;7.65;67.63
74613;BME280;63119;51.788;8.824;2023-04-20T01:28:44;100361.75;;;7.65;67.55
74613;BME280;63119;51.788;8.824;2023-04-20T01:31:10;100364.16;;;7.52;68.16
74613;BME280;63119;51.788;8.824;2023-04-20T01:33:36;100362.06;;;7.59;67.73
74613;BME280;63119;51.788;8.824;2023-04-20T01:36:02;100353.00;;;7.47;68.60
74613;BME280;63119;51.788;8.824;2023-04-20T01:38:28;100356.53;;;7.46;69.22
74613;BME280;63119;51.788;8.824;2023-04-20T01:40:56;100351.69;;;7.56;69.16
74613;BME280;63119;51.788;8.824;2023-04-20T01:43:23;100349.38;;;7.14;70.79
74613;BME280;63119;51.788;8.824;2023-04-20T01:45:49;100342.28;;;6.97;71.32
74613;BME280;63119;51.788;8.824;2023-04-20T01:48:14;100347.03;;;7.08;71.63
74613;BME280;63119;51.788;8.824;2023-04-20T01:50:40;100349.41;;;6.95;71.79
74613;BME280;63119;51.788;8.824;2023-04-20T01:53:05;100334.91;;;6.87;72.35
74613;BME280;63119;51.788;8.824;2023-04-20T01:55:30;100333.66;;;6.94;72.31
74613;BME280;63119;51.788;8.824;2023-04-20T01:57:55;100337.38;;;6.90;72.33
74613;BME280;63119;51.788;8.824;2023-04-20T02:00:21;100333.81;;;6.91;72.81
74613;BME280;63119;51.788;8.824;2023-04-20T02:02:46;100327.50;;;6.95;72.98
74613;BME280;63119;51.788;8.824;2023-04-20T02:05:11;100329.94;;;6.81;73.76
74613;BME280;63119;51.788;8.824;2023-04-20T02:07:36;100334.75;;;6.71;73.57
74613;BME280;63119;51.788;8.824;2023-04-20T02:10:03;100334.47;;;6.58;74.56
74613;BME280;63119;51.788;8.824;2023-04-20T02:12:28;100331.03;;;6.75;73.88
74613;BME280;63119;51.788;8.824;2023-04-20T02:14:53;100323.72;;;6.82;74.08
74613;BME280;63119;51.788;8.824;2023-04-20T02:17:19;100331.13;;;6.74;74.07
74613;BME280;63119;51.788;8.824;2023-04-20T02:19:44;100333.75;;;6.55;75.06
74613;BME280;63119;51.788;8.824;2023-04-20T02:22:10;100325.00;;;6.73;75.18
74613;BME280;63119;51.788;8.824;2023-04-20T02:24:36;100326.66;;;6.76;74.82
74613;BME280;63119;51.788;8.824;2023-04-20T02:27:01;100324.97;;;6.75;74.37
74613;BME280;63119;51.788;8.824;2023-04-20T02:29:27;100326.22;;;6.85;74.87
74613;BME280;63119;51.788;8.824;2023-04-20T02:31:52;100318.59;;;6.79;75.04
74613;BME280;63119;51.788;8.824;2023-04-20T02:34:18;100312.16;;;6.67;75.21
74613;BME280;63119;51.788;8.824;2023-04-20T02:36:43;100314.63;;;6.70;76.30
74613;BME280;63119;51.788;8.824;2023-04-20T02:39:08;100312.34;;;6.81;75.93
74613;BME280;63119;51.788;8.824;2023-04-20T02:41:34;100316.09;;;6.94;75.85
74613;BME280;63119;51.788;8.824;2023-04-20T02:43:59;100312.16;;;6.67;75.35
74613;BME280;63119;51.788;8.824;2023-04-20T02:46:25;100310.09;;;6.74;74.84
74613;BME280;63119;51.788;8.824;2023-04-20T02:48:50;100308.19;;;6.77;75.08
74613;BME280;63119;51.788;8.824;2023-04-20T02:51:15;100302.41;;;6.69;74.87
74613;BME280;63119;51.788;8.824;2023-04-20T02:53:40;100292.47;;;6.76;75.15
74613;BME280;63119;51.788;8.824;2023-04-20T02:56:06;100301.28;;;6.75;75.55
74613;BME280;63119;51.788;8.824;2023-04-20T02:58:31;100298.69;;;6.92;74.69
74613;BME280;63119;51.788;8.824;2023-04-20T03:00:59;100298.84;;;6.89;74.32
74613;BME280;63119;51.788;8.824;2023-04-20T03:03:25;100293.41;;;6.75;75.61
74613;BME280;63119;51.788;8.824;2023-04-20T03:05:51;100288.28;;;6.72;76.25
74613;BME280;63119;51.788;8.824;2023-04-20T03:08:16;100288.47;;;6.86;76.09
74613;BME280;63119;51.788;8.824;2023-04-20T03:10:41;100287.56;;;6.68;75.93
74613;BME280;63119;51.788;8.824;2023-04-20T03:13:07;100282.72;;;6.78;76.33
74613;BME280;63119;51.788;8.824;2023-04-20T03:15:32;100280.44;;;6.70;76.54
74613;BME280;63119;51.788;8.824;2023-04-20T03:17:57;100279.56;;;6.88;76.00
74613;BME280;63119;51.788;8.824;2023-04-20T03:20:22;100274.91;;;6.57;76.03
74613;BME280;63119;51.788;8.824;2023-04-20T03:22:48;100271.78;;;6.68;76.95
74613;BME280;63119;51.788;8.824;2023-04-20T03:25:13;100282.78;;;6.76;76.21
74613;BME280;63119;51.788;8.824;2023-04-20T03:27:38;100273.22;;;6.56;76.10
74613;BME280;63119;51.788;8.824;2023-04-20T03:30:04;100269.88;;;6.72;76.28
74613;BME280;63119;51.788;8.824;2023-04-20T03:32:30;100272.06;;;6.81;76.30
74613;BME280;63119;51.788;8.824;2023-04-20T03:34:56;100276.03;;;6.89;76.42
74613;BME280;63119;51.788;8.824;2023-04-20T03:37:21;100277.72;;;6.90;75.91
74613;BME280;63119;51.788;8.824;2023-04-20T03:39:46;100268.06;;;6.91;76.44
74613;BME280;63119;51.788;8.824;2023-04-20T03:42:11;100271.91;;;6.84;75.96
74613;BME280;63119;51.788;8.824;2023-04-20T03:44:37;100274.56;;;6.84;76.19
74613;BME280;63119;51.788;8.824;2023-04-20T03:47:02;100273.59;;;6.85;77.02
74613;BME280;63119;51.788;8.824;2023-04-20T03:49:28;100262.03;;;6.89;76.56
74613;BME280;63119;51.788;8.824;2023-04-20T03:51:54;100269.66;;;6.76;77.20
74613;BME280;63119;51.788;8.824;2023-04-20T03:54:19;100270.34;;;6.80;76.69
74613;BME280;63119;51.788;8.824;2023-04-20T03:56:44;100264.97;;;6.64;78.38
74613;BME280;63119;51.788;8.824;2023-04-20T03:59:10;100265.69;;;6.49;78.05
74613;BME280;63119;51.788;8.824;2023-04-20T04:01:35;100260.09;;;6.56;79.15
74613;BME280;63119;51.788;8.824;2023-04-20T04:04:03;100268.94;;;6.73;78.07
74613;BME280;63119;51.788;8.824;2023-04-20T04:06:28;100270.31;;;6.44;78.07
74613;BME280;63119;51.788;8.824;2023-04-20T04:08:53;100275.19;;;6.33;78.05
74613;BME280;63119;51.788;8.824;2023-04-20T04:11:19;100273.50;;;6.32;78.90
74613;BME280;63119;51.788;8.824;2023-04-20T04:13:44;100270.31;;;6.44;77.76
74613;BME280;63119;51.788;8.824;2023-04-20T04:16:10;100272.09;;;6.43;78.26
74613;BME280;63119;51.788;8.824;2023-04-20T04:18:35;100280.13;;;6.40;77.86
74613;BME280;63119;51.788;8.824;2023-04-20T04:21:00;100273.50;;;6.32;78.23
74613;BME280;63119;51.788;8.824;2023-04-20T04:23:26;100275.53;;;6.07;79.55
74613;BME280;63119;51.788;8.824;2023-04-20T04:25:51;100279.47;;;6.17;79.98
74613;BME280;63119;51.788;8.824;2023-04-20T04:28:16;100279.34;;;5.99;80.82
74613;BME280;63119;51.788;8.824;2023-04-20T04:30:42;100279.75;;;6.29;79.56
74613;BME280;63119;51.788;8.824;2023-04-20T04:33:07;100284.66;;;6.37;79.59
74613;BME280;63119;51.788;8.824;2023-04-20T04:35:34;100280.59;;;6.30;79.22
74613;BME280;63119;51.788;8.824;2023-04-20T04:37:59;100277.06;;;6.31;79.68
74613;BME280;63119;51.788;8.824;2023-04-20T04:40:25;100279.25;;;6.21;79.15
74613;BME280;63119;51.788;8.824;2023-04-20T04:42:50;100280.03;;;6.42;79.26
74613;BME280;63119;51.788;8.824;2023-04-20T04:45:16;100273.22;;;6.19;79.33
74613;BME280;63119;51.788;8.824;2023-04-20T04:47:42;100276.78;;;6.37;79.56
74613;BME280;63119;51.788;8.824;2023-04-20T04:50:08;100280.16;;;6.39;78.38
74613;BME280;63119;51.788;8.824;2023-04-20T04:52:34;100279.16;;;6.41;78.87
74613;BME280;63119;51.788;8.824;2023-04-20T04:55:00;100275.34;;;6.48;78.26
74613;BME280;63119;51.788;8.824;2023-04-20T04:57:25;100279.97;;;6.62;78.04
74613;BME280;63119;51.788;8.824;2023-04-20T04:59:51;100269.94;;;6.51;78.18
74613;BME280;63119;51.788;8.824;2023-04-20T05:02:16;100283.84;;;6.72;77.63
74613;BME280;63119;51.788;8.824;2023-04-20T05:04:41;100275.75;;;6.77;77.39
74613;BME280;63119;51.788;8.824;2023-04-20T05:07:07;100277.53;;;6.76;77.29
74613;BME280;63119;51.788;8.824;2023-04-20T05:09:34;100271.94;;;6.65;77.73
74613;BME280;63119;51.788;8.824;2023-04-20T05:12:00;100266.84;;;6.43;78.37
74613;BME280;63119;51.788;8.824;2023-04-20T05:14:26;100272.94;;;6.63;77.47
74613;BME280;63119;51.788;8.824;2023-04-20T05:16:51;100268.94;;;6.73;77.46
74613;BME280;63119;51.788;8.824;2023-04-20T05:19:17;100276.75;;;6.74;76.50
74613;BME280;63119;51.788;8.824;2023-04-20T05:21:42;100270.81;;;6.88;76.69
74613;BME280;63119;51.788;8.824;2023-04-20T05:24:07;100271.91;;;6.84;76.55
74613;BME280;63119;51.788;8.824;2023-04-20T05:26:33;100270.22;;;7.00;75.78
74613;BME280;63119;51.788;8.824;2023-04-20T05:28:58;100272.56;;;7.06;75.30
74613;BME280;63119;51.788;8.824;2023-04-20T05:31:23;100270.72;;;7.08;75.28
74613;BME280;63119;51.788;8.824;2023-04-20T05:33:50;100272.97;;;7.15;75.47
74613;BME280;63119;51.788;8.824;2023-04-20T05:36:15;100270.59;;;7.28;74.60
74613;BME280;63119;51.788;8.824;2023-04-20T05:38:40;100271.59;;;7.43;73.85
74613;BME280;63119;51.788;8.824;2023-04-20T05:41:06;100279.41;;;7.27;73.30
74613;BME280;63119;51.788;8.824;2023-04-20T05:43:31;100269.22;;;7.38;74.55
74613;BME280;63119;51.788;8.824;2023-04-20T05:45:56;100260.44;;;7.55;73.45
74613;BME280;63119;51.788;8.824;2023-04-20T05:48:22;100265.50;;;7.59;73.01
74613;BME280;63119;51.788;8.824;2023-04-20T05:50:47;100268.75;;;7.47;72.92
74613;BME280;63119;51.788;8.824;2023-04-20T05:53:13;100272.03;;;7.51;72.95
74613;BME280;63119;51.788;8.824;2023-04-20T05:55:38;100274.38;;;7.40;73.48
74613;BME280;63119;51.788;8.824;2023-04-20T05:58:03;100270.44;;;7.48;73.71
74613;BME280;63119;51.788;8.824;2023-04-20T06:00:28;100277.00;;;7.23;73.11
74613;BME280;63119;51.788;8.824;2023-04-20T06:02:54;100272.44;;;7.43;73.76
74613;BME280;63119;51.788;8.824;2023-04-20T06:05:19;100275.59;;;7.33;73.76
74613;BME280;63119;51.788;8.824;2023-04-20T06:07:45;100265.16;;;7.31;74.58
74613;BME280;63119;51.788;8.824;2023-04-20T06:10:11;100266.56;;;7.55;73.84
74613;BME280;63119;51.788;8.824;2023-04-20T06:12:36;100269.56;;;7.48;73.61
74613;BME280;63119;51.788;8.824;2023-04-20T06:15:02;100266.25;;;7.44;74.02
74613;BME280;63119;51.788;8.824;2023-04-20T06:17:30;100271.75;;;7.23;73.96
74613;BME280;63119;51.788;8.824;2023-04-20T06:19:55;100272.91;;;7.34;73.79
74613;BME280;63119;51.788;8.824;2023-04-20T06:22:21;100267.34;;;7.40;73.65
74613;BME280;63119;51.788;8.824;2023-04-20T06:24:46;100281.28;;;7.25;74.55
74613;BME280;63119;51.788;8.824;2023-04-20T06:27:12;100276.16;;;7.05;74.50
74613;BME280;63119;51.788;8.824;2023-04-20T06:29:37;100279.84;;;7.01;74.86
74613;BME280;63119;51.788;8.824;2023-04-20T06:32:03;100277.47;;;7.13;74.26
74613;BME280;63119;51.788;8.824;2023-04-20T06:34:28;100280.56;;;7.04;74.81
74613;BME280;63119;51.788;8.824;2023-04-20T06:36:54;100281.31;;;7.06;75.38
74613;BME280;63119;51.788;8.824;2023-04-20T06:39:19;100280.91;;;6.97;75.40
74613;BME280;63119;51.788;8.824;2023-04-20T06:41:45;100278.38;;;7.12;75.04
74613;BME280;63119;51.788;8.824;2023-04-20T06:44:11;100280.59;;;7.03;75.50
74613;BME280;63119;51.788;8.824;2023-04-20T06:46:36;100283.94;;;7.06;75.10
74613;BME280;63119;51.788;8.824;2023-04-20T06:49:02;100283.06;;;6.89;75.49
74613;BME280;63119;51.788;8.824;2023-04-20T06:51:28;100280.69;;;7.01;75.61
74613;BME280;63119;51.788;8.824;2023-04-20T06:53:54;100282.50;;;7.18;75.42
74613;BME280;63119;51.788;8.824;2023-04-20T06:56:19;100284.34;;;6.99;75.30
74613;BME280;63119;51.788;8.824;2023-04-20T06:58:44;100280.97;;;7.14;75.61
74613;BME280;63119;51.788;8.824;2023-04-20T07:01:09;100284.03;;;7.05;76.33
74613;BME280;63119;51.788;8.824;2023-04-20T07:03:35;100286.38;;;7.11;75.98
74613;BME280;63119;51.788;8.824;2023-04-20T07:06:01;100286.38;;;7.11;75.62
74613;BME280;63119;51.788;8.824;2023-04-20T07:08:27;100282.56;;;7.17;74.75
74613;BME280;63119;51.788;8.824;2023-04-20T07:10:52;100286.81;;;7.02;75.31
74613;BME280;63119;51.788;8.824;2023-04-20T07:13:17;100286.47;;;6.91;75.88
74613;BME280;63119;51.788;8.824;2023-04-20T07:15:44;100284.09;;;7.03;75.62
74613;BME280;63119;51.788;8.824;2023-04-20T07:18:10;100284.56;;;6.57;76.85
74613;BME280;63119;51.788;8.824;2023-04-20T07:20:35;100283.72;;;6.75;76.60
74613;BME280;63119;51.788;8.824;2023-04-20T07:23:00;100280.03;;;6.79;76.46
74613;BME280;63119;51.788;8.824;2023-04-20T07:25:25;100282.88;;;6.75;76.08
74613;BME280;63119;51.788;8.824;2023-04-20T07:27:51;100286.78;;;6.66;77.52
74613;BME280;63119;51.788;8.824;2023-04-20T07:30:16;100279.31;;;6.76;76.03
74613;BME280;63119;51.788;8.824;2023-04-20T07:32:42;100275.47;;;6.83;76.51
74613;BME280;63119;51.788;8.824;2023-04-20T07:35:08;100276.53;;;6.79;76.83
74613;BME280;63119;51.788;8.824;2023-04-20T07:37:33;100290.97;;;6.70;77.36
74613;BME280;63119;51.788;8.824;2023-04-20T07:39:59;100285.00;;;6.67;78.01
74613;BME280;63119;51.788;8.824;2023-04-20T07:42:24;100291.75;;;6.72;79.12
74613;BME280;63119;51.788;8.824;2023-04-20T07:44:50;100289.50;;;6.65;79.94
74613;BME280;63119;51.788;8.824;2023-04-20T07:47:15;100285.22;;;6.62;79.24
74613;BME280;63119;51.788;8.824;2023-04-20T07:49:41;100299.78;;;6.69;78.68
74613;BME280;63119;51.788;8.824;2023-04-20T07:52:07;100288.69;;;6.81;77.78
74613;BME280;63119;51.788;8.824;2023-04-20T07:54:32;100292.53;;;7.10;77.98
74613;BME280;63119;51.788;8.824;2023-04-20T07:56:58;100287.16;;;7.30;77.34
74613;BME280;63119;51.788;8.824;2023-04-20T07:59:23;100291.69;;;7.27;76.60
74613;BME280;63119;51.788;8.824;2023-04-20T08:01:48;100296.19;;;7.07;76.48
74613;BME280;63119;51.788;8.824;2023-04-20T08:04:14;100294.06;;;7.50;76.97
74613;BME280;63119;51.788;8.824;2023-04-20T08:06:39;100299.41;;;7.65;75.76
74613;BME280;63119;51.788;8.824;2023-04-20T08:09:05;100303.44;;;7.55;74.43
74613;BME280;63119;51.788;8.824;2023-04-20T08:11:30;100296.28;;;7.40;74.49
74613;BME280;63119;51.788;8.824;2023-04-20T08:13:55;100291.03;;;7.75;74.71
74613;BME280;63119;51.788;8.824;2023-04-20T08:16:20;100291.81;;;7.77;73.80
74613;BME280;63119;51.788;8.824;2023-04-20T08:18:46;100306.91;;;7.90;73.73
74613;BME280;63119;51.788;8.824;2023-04-20T08:21:11;100300.34;;;7.47;73.88
74613;BME280;63119;51.788;8.824;2023-04-20T08:23:36;100299.72;;;7.59;74.20
74613;BME280;63119;51.788;8.824;2023-04-20T08:26:02;100304.81;;;7.45;73.65
74613;BME280;63119;51.788;8.824;2023-04-20T08:28:28;100301.25;;;7.63;73.99
74613;BME280;63119;51.788;8.824;2023-04-20T08:30:53;100300.16;;;7.85;73.46
74613;BME280;63119;51.788;8.824;2023-04-20T08:33:18;100310.09;;;7.62;73.53
74613;BME280;63119;51.788;8.824;2023-04-20T08:35:44;100307.38;;;7.81;72.80
74613;BME280;63119;51.788;8.824;2023-04-20T08:38:09;100309.63;;;7.54;72.95
74613;BME280;63119;51.788;8.824;2023-04-20T08:40:36;100302.97;;;7.64;72.54
74613;BME280;63119;51.788;8.824;2023-04-20T08:43:02;100312.72;;;7.62;73.21
74613;BME280;63119;51.788;8.824;2023-04-20T08:45:29;100304.19;;;7.57;72.30
74613;BME280;63119;51.788;8.824;2023-04-20T08:47:57;100301.09;;;7.66;72.91
74613;BME280;63119;51.788;8.824;2023-04-20T08:50:22;100305.88;;;7.76;72.26
74613;BME280;63119;51.788;8.824;2023-04-20T08:52:47;100304.19;;;7.57;73.10
74613;BME280;63119;51.788;8.824;2023-04-20T08:55:17;100306.69;;;7.78;71.72
74613;BME280;63119;51.788;8.824;2023-04-20T08:57:42;100309.91;;;7.48;71.80
74613;BME280;63119;51.788;8.824;2023-04-20T09:00:08;100318.91;;;7.61;72.89
74613;BME280;63119;51.788;8.824;2023-04-20T09:02:57;100311.94;;;7.60;72.22
74613;BME280;63119;51.788;8.824;2023-04-20T09:05:30;100316.59;;;7.72;71.67
74613;BME280;63119;51.788;8.824;2023-04-20T09:07:59;100310.69;;;7.85;71.69
74613;BME280;63119;51.788;8.824;2023-04-20T09:10:26;100311.47;;;7.87;71.71
74613;BME280;63119;51.788;8.824;2023-04-20T09:12:51;100308.38;;;7.96;71.29
74613;BME280;63119;51.788;8.824;2023-04-20T09:15:27;100320.50;;;8.15;71.62
74613;BME280;63119;51.788;8.824;2023-04-20T09:17:53;100317.88;;;7.98;71.40
74613;BME280;63119;51.788;8.824;2023-04-20T09:20:39;100317.03;;;7.98;71.58
74613;BME280;63119;51.788;8.824;2023-04-20T09:23:10;100312.84;;;7.94;71.94
74613;BME280;63119;51.788;8.824;2023-04-20T09:25:36;100309.25;;;8.12;72.33
74613;BME280;63119;51.788;8.824;2023-04-20T09:28:01;100326.00;;;8.28;70.57
74613;BME280;63119;51.788;8.824;2023-04-20T09:30:40;100309.94;;;8.33;71.30
74613;BME280;63119;51.788;8.824;2023-04-20T09:33:06;100315.19;;;8.65;71.32
74613;BME280;63119;51.788;8.824;2023-04-20T09:35:33;100314.13;;;8.52;69.98
74613;BME280;63119;51.788;8.824;2023-04-20T09:37:58;100311.09;;;8.60;69.54
74613;BME280;63119;51.788;8.824;2023-04-20T09:40:24;100313.13;;;8.86;69.46
74613;BME280;63119;51.788;8.824;2023-04-20T09:42:52;100310.50;;;8.86;68.07
74613;BME280;63119;51.788;8.824;2023-04-20T09:45:17;100303.69;;;8.98;67.03
74613;BME280;63119;51.788;8.824;2023-04-20T09:47:43;100306.78;;;9.36;66.31
74613;BME280;63119;51.788;8.824;2023-04-20T09:50:10;100306.75;;;9.51;64.65
74613;BME280;63119;51.788;8.824;2023-04-20T09:52:39;100309.31;;;9.67;62.36
74613;BME280;63119;51.788;8.824;2023-04-20T09:55:05;100305.31;;;9.75;62.24
74613;BME280;63119;51.788;8.824;2023-04-20T09:57:33;100305.06;;;9.50;62.92
74613;BME280;63119;51.788;8.824;2023-04-20T09:59:59;100305.91;;;9.51;63.20
74613;BME280;63119;51.788;8.824;2023-04-20T10:02:25;100307.38;;;9.41;62.44
74613;BME280;63119;51.788;8.824;2023-04-20T10:04:55;100315.41;;;9.39;62.04
74613;BME280;63119;51.788;8.824;2023-04-20T10:07:29;100316.47;;;9.51;61.91
74613;BME280;63119;51.788;8.824;2023-04-20T10:10:15;100309.16;;;9.40;60.82
74613;BME280;63119;51.788;8.824;2023-04-20T10:12:54;100316.22;;;9.40;59.58
74613;BME280;63119;51.788;8.824;2023-04-20T10:15:21;100320.53;;;9.56;59.27
74613;BME280;63119;51.788;8.824;2023-04-20T10:17:47;100313.19;;;9.61;60.10
74613;BME280;63119;51.788;8.824;2023-04-20T10:20:23;100320.22;;;9.47;59.67
74613;BME280;63119;51.788;8.824;2023-04-20T10:22:51;100318.38;;;9.33;59.37
74613;BME280;63119;51.788;8.824;2023-04-20T10:25:18;100321.06;;;9.47;60.08
74613;BME280;63119;51.788;8.824;2023-04-20T10:28:11;100317.84;;;9.72;60.17
74613;BME280;63119;51.788;8.824;2023-04-20T10:30:37;100312.78;;;9.53;60.82
74613;BME280;63119;51.788;8.824;2023-04-20T10:33:13;100307.84;;;9.77;60.08
74613;BME280;63119;51.788;8.824;2023-04-20T10:38:08;100318.34;;;9.78;59.53
74613;BME280;63119;51.788;8.824;2023-04-20T10:40:35;100311.72;;;9.71;60.66
74613;BME280;63119;51.788;8.824;2023-04-20T10:43:01;100300.03;;;9.89;59.41
74613;BME280;63119;51.788;8.824;2023-04-20T10:45:34;100305.78;;;9.82;59.26
74613;BME280;63119;51.788;8.824;2023-04-20T10:48:05;100291.44;;;9.72;60.63
74613;BME280;63119;51.788;8.824;2023-04-20T10:50:30;100294.84;;;9.88;60.67
74613;BME280;63119;51.788;8.824;2023-04-20T10:52:56;100288.53;;;9.91;60.33
74613;BME280;63119;51.788;8.824;2023-04-20T10:55:23;100288.75;;;10.16;59.62
74613;BME280;63119;51.788;8.824;2023-04-20T10:57:49;100278.19;;;10.16;58.69
74613;BME280;63119;51.788;8.824;2023-04-20T11:00:16;100291.25;;;9.89;60.01
74613;BME280;63119;51.788;8.824;2023-04-20T11:02:50;100290.88;;;9.95;59.81
74613;BME280;63119;51.788;8.824;2023-04-20T11:05:16;100291.44;;;10.00;59.12
74613;BME280;63119;51.788;8.824;2023-04-20T11:07:56;100289.16;;;10.24;58.79
74613;BME280;63119;51.788;8.824;2023-04-20T11:10:24;100282.34;;;10.48;56.87
74613;BME280;63119;51.788;8.824;2023-04-20T11:12:49;100292.59;;;10.81;57.43
74613;BME280;63119;51.788;8.824;2023-04-20T11:15:16;100285.16;;;10.31;55.33
74613;BME280;63119;51.788;8.824;2023-04-20T11:17:41;100277.13;;;10.47;57.68
74613;BME280;63119;51.788;8.824;2023-04-20T11:20:12;100274.56;;;10.59;55.94
74613;BME280;63119;51.788;8.824;2023-04-20T11:22:41;100277.28;;;10.72;55.84
74613;BME280;63119;51.788;8.824;2023-04-20T11:25:08;100268.72;;;10.54;55.17
74613;BME280;63119;51.788;8.824;2023-04-20T11:27:35;100272.13;;;10.56;56.28
74613;BME280;63119;51.788;8.824;2023-04-20T11:30:01;100268.72;;;10.95;55.46
74613;BME280;63119;51.788;8.824;2023-04-20T11:32:30;100270.09;;;10.74;55.15
74613;BME280;63119;51.788;8.824;2023-04-20T11:34:58;100263.84;;;11.28;54.59
74613;BME280;63119;51.788;8.824;2023-04-20T11:37:24;100268.06;;;10.91;54.80
74613;BME280;63119;51.788;8.824;2023-04-20T11:40:05;100277.81;;;10.91;57.02
74613;BME280;63119;51.788;8.824;2023-04-20T11:42:34;100279.63;;;10.76;57.24
74613;BME280;63119;51.788;8.824;2023-04-20T11:44:59;100276.50;;;11.11;58.23
74613;BME280;63119;51.788;8.824;2023-04-20T11:47:25;100270.69;;;11.06;57.25
74613;BME280;63119;51.788;8.824;2023-04-20T11:49:50;100269.16;;;11.02;55.17
74613;BME280;63119;51.788;8.824;2023-04-20T11:52:15;100266.84;;;10.83;57.28
74613;BME280;63119;51.788;8.824;2023-04-20T11:54:40;100264.31;;;10.81;56.00
74613;BME280;63119;51.788;8.824;2023-04-20T11:57:06;100269.13;;;10.48;57.03
74613;BME280;63119;51.788;8.824;2023-04-20T11:59:31;100269.84;;;10.50;56.98
74613;BME280;63119;51.788;8.824;2023-04-20T12:01:57;100258.16;;;11.08;54.53
74613;BME280;63119;51.788;8.824;2023-04-20T12:04:22;100242.38;;;11.33;54.16
74613;BME280;63119;51.788;8.824;2023-04-20T12:06:47;100250.25;;;11.60;53.80
74613;BME280;63119;51.788;8.824;2023-04-20T12:09:13;100247.31;;;11.77;53.31
74613;BME280;63119;51.788;8.824;2023-04-20T12:11:38;100236.28;;;11.58;53.36
74613;BME280;63119;51.788;8.824;2023-04-20T12:14:04;100254.91;;;11.56;53.33
74613;BME280;63119;51.788;8.824;2023-04-20T12:16:29;100235.97;;;11.23;52.17
74613;BME280;63119;51.788;8.824;2023-04-20T12:18:54;100242.56;;;11.30;52.11
74613;BME280;63119;51.788;8.824;2023-04-20T12:21:20;100247.97;;;11.02;51.63
74613;BME280;63119;51.788;8.824;2023-04-20T12:23:45;100243.50;;;10.89;51.02
74613;BME280;63119;51.788;8.824;2023-04-20T12:26:13;100243.69;;;10.86;51.93
74613;BME280;63119;51.788;8.824;2023-04-20T12:28:38;100245.28;;;10.89;52.69
74613;BME280;63119;51.788;8.824;2023-04-20T12:31:03;100244.69;;;10.71;51.66
74613;BME280;63119;51.788;8.824;2023-04-20T12:33:29;100235.19;;;11.08;50.94
74613;BME280;63119;51.788;8.824;2023-04-20T12:35:55;100244.00;;;11.09;51.58
74613;BME280;63119;51.788;8.824;2023-04-20T12:38:20;100239.28;;;11.91;49.26
74613;BME280;63119;51.788;8.824;2023-04-20T12:40:45;100235.59;;;11.41;49.63
74613;BME280;63119;51.788;8.824;2023-04-20T12:43:11;100242.38;;;11.85;51.84
74613;BME280;63119;51.788;8.824;2023-04-20T12:45:36;100245.47;;;11.13;51.70
74613;BME280;63119;51.788;8.824;2023-04-20T12:48:01;100244.81;;;10.82;53.08
74613;BME280;63119;51.788;8.824;2023-04-20T12:50:26;100236.34;;;10.77;52.79
74613;BME280;63119;51.788;8.824;2023-04-20T12:52:52;100230.59;;;10.97;54.04
74613;BME280;63119;51.788;8.824;2023-04-20T12:55:20;100245.00;;;10.93;52.96